Flight Track Log - Related Links

Times and Time Zones

All times are in EDT time to prevent confusion due to time zone crossing. See the C-GDBS flight status page for this flight to view local times or setup timezone preferences in your user account.

Time Position Orientation Groundspeed Altitude Reporting Facility
EDT Latitude Longitude Course Direction KTS MPH feet Rate Location/Type
Tue 08:16:22 AM 42.2275 -82.3694 253° West 165 190 4,000  Level Cleveland Center
Tue 08:16:55 AM 42.2311 -82.4003 279° West 168 193 4,100 82 Climbing Cleveland Center
Tue 08:17:00 AM 42.2947 -82.2978 265° West  Level FlightAware Approximate
Tue 08:17:35 AM 42.2408 -82.4397 288° West 156 180 4,100  Level Cleveland Center
Tue 08:17:55 AM 42.2364 -82.4539 247° West 162 186 4,100 -98 Level Cleveland Center
Tue 08:18:36 AM 42.2275 -82.5011 256° West 170 196 4,000  Descending Cleveland Center
Tue 08:18:55 AM 42.2208 -82.5150 237° Southwest 162 186 4,100 100 Climbing Cleveland Center
Tue 08:19:36 AM 42.2014 -82.5592 239° Southwest 177 204 4,100  Level Cleveland Center
Tue 08:19:55 AM 42.1992 -82.5703 255° West 169 194 4,100 -393 Level Cleveland Center
Tue 08:20:37 AM 42.2067 -82.6239 281° West 164 189 3,700 -400 Descending Cleveland Center
Tue 08:20:55 AM 42.2044 -82.6294 242° Southwest 164 189 3,700 -590 Level Cleveland Center
Tue 08:21:38 AM 42.2203 -82.6719 297° West 153 176 3,100 -700 Descending Cleveland Center
Tue 08:21:55 AM 42.2222 -82.6833 283° West 159 183 3,000 -787 Descending Cleveland Center
Tue 08:22:39 AM 42.2317 -82.7283 286° West 155 178 2,300 -800 Descending Cleveland Center
Tue 08:22:55 AM 42.2314 -82.7397 268° West 159 183 2,200 -590 Descending Cleveland Center
Tue 08:23:40 AM 42.2453 -82.7878 291° West 157 181 1,700 -600 Descending Cleveland Center
Tue 08:23:55 AM 42.2431 -82.7933 242° Southwest 159 183 1,600 -98 Descending Cleveland Center
Tue 08:24:41 AM 42.2483 -82.8356 280° West 131 151 1,600 -178 Level Cleveland Center
Tue 08:25:36 AM 42.2561 -82.8725 286° West 103 119 1,300 -243 Descending Cleveland Center
Tue 08:25:55 AM 42.2536 -82.8836 253° West 135 155 1,300 -100 Level Cleveland Center
Tue 08:26:36 AM 42.2614 -82.9147 289° West 102 117 1,200 -146 Descending Cleveland Center

Login

Don't have an account? Register now (free) for customized features, flight alerts, and more!